createdAt,value
2019-05-26T00:00:49.072Z,6.12
2019-05-26T00:01:49.100Z,6.12
2019-05-26T00:02:49.082Z,6.11
2019-05-26T00:03:49.130Z,6.09
2019-05-26T00:04:49.120Z,6.08
2019-05-26T00:05:49.154Z,6.06
2019-05-26T00:06:49.200Z,6.06
2019-05-26T00:07:49.131Z,6.08
2019-05-26T00:08:49.197Z,6.04
2019-05-26T00:09:49.128Z,6.06
2019-05-26T00:10:49.205Z,6.04
2019-05-26T00:11:49.149Z,6.02
2019-05-26T00:12:49.204Z,5.97
2019-05-26T00:13:49.202Z,5.92
2019-05-26T00:14:49.214Z,5.91
2019-05-26T00:15:49.231Z,5.92
2019-05-26T00:16:49.194Z,5.93
2019-05-26T00:17:49.189Z,5.97
2019-05-26T00:18:49.164Z,6.00
2019-05-26T00:19:49.061Z,6.02
2019-05-26T00:20:49.133Z,6.00
2019-05-26T00:21:49.072Z,5.97
2019-05-26T00:22:49.069Z,5.96
2019-05-26T00:23:49.136Z,5.96
2019-05-26T00:24:49.198Z,5.91
2019-05-26T00:25:49.112Z,5.92
2019-05-26T00:26:49.163Z,5.93
2019-05-26T00:27:49.222Z,5.93
2019-05-26T00:28:49.153Z,5.95
2019-05-26T00:29:49.162Z,5.92
2019-05-26T00:30:49.178Z,5.91
2019-05-26T00:31:49.228Z,5.86
2019-05-26T00:32:49.156Z,5.88
2019-05-26T00:33:49.155Z,6.04
2019-05-26T00:34:49.174Z,6.25
2019-05-26T00:35:49.118Z,6.37
2019-05-26T00:36:49.221Z,6.49
2019-05-26T00:37:50.501Z,6.56
2019-05-26T00:38:49.224Z,6.55
2019-05-26T00:39:49.162Z,6.57
2019-05-26T00:40:49.155Z,6.59
2019-05-26T00:41:49.241Z,6.59
2019-05-26T00:42:49.233Z,6.59
2019-05-26T00:43:49.253Z,6.60
2019-05-26T00:44:49.150Z,6.60
2019-05-26T00:45:49.159Z,6.66
2019-05-26T00:46:49.239Z,6.72
2019-05-26T00:47:49.229Z,6.77
2019-05-26T00:48:49.200Z,6.79
2019-05-26T00:49:49.252Z,6.81
2019-05-26T00:50:49.176Z,6.78
2019-05-26T00:51:49.184Z,6.74
2019-05-26T00:52:49.185Z,6.72
2019-05-26T00:53:49.255Z,6.67
2019-05-26T00:54:49.244Z,6.66
2019-05-26T00:55:49.253Z,6.60
2019-05-26T00:56:49.298Z,6.60
2019-05-26T00:57:49.259Z,6.61
2019-05-26T00:58:49.249Z,6.64
2019-05-26T00:59:49.190Z,6.67
2019-05-26T01:00:49.202Z,6.71
2019-05-26T01:01:49.147Z,6.72
2019-05-26T01:02:49.252Z,6.70
2019-05-26T01:03:49.183Z,6.72
2019-05-26T01:04:49.186Z,6.72
2019-05-26T01:05:49.266Z,6.72
2019-05-26T01:06:49.141Z,6.74
2019-05-26T01:08:05.359Z,6.77
2019-05-26T01:08:49.185Z,6.79
2019-05-26T01:09:49.182Z,6.82
2019-05-26T01:10:49.202Z,6.81
2019-05-26T01:11:49.187Z,6.81
2019-05-26T01:12:49.266Z,6.84
2019-05-26T01:13:49.269Z,6.81
2019-05-26T01:14:49.260Z,6.78
2019-05-26T01:15:49.191Z,6.78
2019-05-26T01:16:49.357Z,6.82
2019-05-26T01:17:49.199Z,6.87
2019-05-26T01:18:49.178Z,6.89
2019-05-26T01:19:49.266Z,6.89
2019-05-26T01:20:49.268Z,6.89
2019-05-26T01:21:49.265Z,6.90
2019-05-26T01:22:49.249Z,6.93
2019-05-26T01:23:49.256Z,6.93
2019-05-26T01:24:49.272Z,6.97
2019-05-26T01:25:49.216Z,6.98
2019-05-26T01:26:49.220Z,6.97
2019-05-26T01:27:49.218Z,6.95
2019-05-26T01:28:49.200Z,6.93
2019-05-26T01:29:49.298Z,6.94
2019-05-26T01:30:49.259Z,6.91
2019-05-26T01:31:49.263Z,6.87
2019-05-26T01:32:49.283Z,6.79
2019-05-26T01:33:49.259Z,6.74
2019-05-26T01:34:49.225Z,6.71
2019-05-26T01:35:49.293Z,6.67
2019-05-26T01:36:49.199Z,6.72
2019-05-26T01:37:49.265Z,6.79
2019-05-26T01:38:49.267Z,6.82
2019-05-26T01:39:49.200Z,6.86
2019-05-26T01:40:49.268Z,6.84
2019-05-26T01:41:49.206Z,6.90
2019-05-26T01:42:49.203Z,6.87
2019-05-26T01:43:49.273Z,6.86
2019-05-26T01:44:49.287Z,6.87
2019-05-26T01:45:49.202Z,6.86
2019-05-26T01:46:49.175Z,6.93
2019-05-26T01:47:49.208Z,6.91
2019-05-26T01:48:49.264Z,6.97
2019-05-26T01:49:49.222Z,6.97
2019-05-26T01:50:49.175Z,6.98
2019-05-26T01:51:49.289Z,6.98
2019-05-26T01:52:49.173Z,6.95
2019-05-26T01:53:49.173Z,6.91
2019-05-26T01:54:49.163Z,6.86
2019-05-26T01:55:49.158Z,6.87
2019-05-26T01:56:49.240Z,6.86
2019-05-26T01:57:49.218Z,6.87
2019-05-26T01:58:49.269Z,6.87
2019-05-26T01:59:49.213Z,6.86
2019-05-26T02:00:49.164Z,6.82
2019-05-26T02:01:49.193Z,6.78
2019-05-26T02:02:49.298Z,6.82
2019-05-26T02:03:49.195Z,6.89
2019-05-26T02:04:49.282Z,6.89
2019-05-26T02:05:49.214Z,6.84
2019-05-26T02:06:49.230Z,6.81
2019-05-26T02:07:49.285Z,6.82
2019-05-26T02:08:49.300Z,6.84
2019-05-26T02:09:49.195Z,6.84
2019-05-26T02:10:49.274Z,6.84
2019-05-26T02:11:49.248Z,6.81
2019-05-26T02:12:49.309Z,6.77
2019-05-26T02:13:49.303Z,6.74
2019-05-26T02:14:49.236Z,6.74
2019-05-26T02:15:49.311Z,6.74
2019-05-26T02:16:49.297Z,6.71
2019-05-26T02:17:49.312Z,6.71
2019-05-26T02:18:49.238Z,6.70
2019-05-26T02:19:49.311Z,6.67
2019-05-26T02:20:49.236Z,6.66
2019-05-26T02:21:49.243Z,6.70
2019-05-26T02:22:49.317Z,6.74
2019-05-26T02:23:49.241Z,6.77
2019-05-26T02:24:49.315Z,6.79
2019-05-26T02:25:49.301Z,6.78
2019-05-26T02:26:49.315Z,6.77
2019-05-26T02:27:49.246Z,6.78
2019-05-26T02:28:49.304Z,6.74
2019-05-26T02:29:49.237Z,6.74
2019-05-26T02:30:49.307Z,6.70
2019-05-26T02:31:49.248Z,6.68
2019-05-26T02:32:49.309Z,6.64
2019-05-26T02:33:49.241Z,6.63
2019-05-26T02:34:49.310Z,6.63
2019-05-26T02:35:49.308Z,6.64
2019-05-26T02:36:49.235Z,6.71
2019-05-26T02:37:49.309Z,6.74
2019-05-26T02:39:00.846Z,6.78
2019-05-26T02:39:49.254Z,6.77
2019-05-26T02:40:49.311Z,6.74
2019-05-26T02:41:49.243Z,6.72
2019-05-26T02:42:49.404Z,6.74
2019-05-26T02:43:49.254Z,6.74
2019-05-26T02:44:49.323Z,6.70
2019-05-26T02:45:49.314Z,6.70
2019-05-26T02:46:49.270Z,6.71
2019-05-26T02:47:49.256Z,6.74
2019-05-26T02:48:49.340Z,6.75
2019-05-26T02:49:49.328Z,6.77
2019-05-26T02:50:49.289Z,6.78
2019-05-26T02:51:49.335Z,6.74
2019-05-26T02:52:49.351Z,6.75
2019-05-26T02:53:49.277Z,6.71
2019-05-26T02:54:49.336Z,6.66
2019-05-26T02:55:49.331Z,6.66
2019-05-26T02:56:49.313Z,6.64
2019-05-26T02:57:49.286Z,6.59
2019-05-26T02:58:49.350Z,6.57
2019-05-26T02:59:49.283Z,6.51
2019-05-26T03:00:49.251Z,6.49
2019-05-26T03:02:02.037Z,6.44
2019-05-26T03:02:49.265Z,6.43
2019-05-26T03:03:49.290Z,6.41
2019-05-26T03:04:49.190Z,6.41
2019-05-26T03:05:49.263Z,6.43
2019-05-26T03:06:49.361Z,6.44
2019-05-26T03:07:49.301Z,6.47
2019-05-26T03:08:49.274Z,6.48
2019-05-26T03:09:49.272Z,6.51
2019-05-26T03:10:49.285Z,6.55
2019-05-26T03:11:49.353Z,6.57
2019-05-26T03:12:49.275Z,6.57
2019-05-26T03:13:49.350Z,6.59
2019-05-26T03:14:49.360Z,6.63
2019-05-26T03:15:49.280Z,6.61
2019-05-26T03:16:49.359Z,6.61
2019-05-26T03:17:49.301Z,6.59
2019-05-26T03:18:49.356Z,6.59
2019-05-26T03:19:49.277Z,6.55
2019-05-26T03:20:49.279Z,6.49
2019-05-26T03:21:49.290Z,6.48
2019-05-26T03:22:49.375Z,6.48
2019-05-26T03:23:49.368Z,6.49
2019-05-26T03:24:49.284Z,6.48
2019-05-26T03:25:49.295Z,6.47
2019-05-26T03:26:49.317Z,6.41
2019-05-26T03:27:49.382Z,6.41
2019-05-26T03:28:49.363Z,6.40
2019-05-26T03:29:49.299Z,6.37
2019-05-26T03:30:49.381Z,6.36
2019-05-26T03:31:49.330Z,6.40
2019-05-26T03:32:49.346Z,6.40
2019-05-26T03:33:49.304Z,6.40
2019-05-26T03:34:49.324Z,6.43
2019-05-26T03:35:49.375Z,6.49
2019-05-26T03:36:49.274Z,6.55
2019-05-26T03:37:49.243Z,6.52
2019-05-26T03:38:49.317Z,6.51
2019-05-26T03:39:49.219Z,6.49
2019-05-26T03:40:49.287Z,6.48
2019-05-26T03:41:49.223Z,6.49
2019-05-26T03:42:49.264Z,6.51
2019-05-26T03:43:49.324Z,6.57
2019-05-26T03:44:49.282Z,6.61
2019-05-26T03:45:49.239Z,6.61
2019-05-26T03:46:49.373Z,6.61
2019-05-26T03:47:49.319Z,6.66
2019-05-26T03:48:49.398Z,6.64
2019-05-26T03:49:49.322Z,6.66
2019-05-26T03:50:49.390Z,6.68
2019-05-26T03:51:49.375Z,6.72
2019-05-26T03:52:49.373Z,6.72
2019-05-26T03:53:49.466Z,6.72
2019-05-26T03:54:49.368Z,6.74
2019-05-26T03:55:49.373Z,6.74
2019-05-26T03:56:49.488Z,6.70
2019-05-26T03:57:49.383Z,6.71
2019-05-26T03:58:49.323Z,6.77
2019-05-26T03:59:49.365Z,6.79
2019-05-26T04:00:49.313Z,6.86
2019-05-26T04:01:49.389Z,6.89
2019-05-26T04:02:49.317Z,6.91
2019-05-26T04:03:49.501Z,6.93
2019-05-26T04:04:49.268Z,6.95
2019-05-26T04:05:49.319Z,6.97
2019-05-26T04:06:49.388Z,7.00
2019-05-26T04:07:49.314Z,7.01
2019-05-26T04:08:49.322Z,7.01
2019-05-26T04:10:04.090Z,7.01
2019-05-26T04:10:49.390Z,7.02
2019-05-26T04:11:49.326Z,7.02
2019-05-26T04:12:49.412Z,7.04
2019-05-26T04:13:49.323Z,7.04
2019-05-26T04:14:49.326Z,7.04
2019-05-26T04:15:49.392Z,7.04
2019-05-26T04:16:49.317Z,7.07
2019-05-26T04:17:49.309Z,7.11
2019-05-26T04:18:49.384Z,7.13
2019-05-26T04:19:49.298Z,7.15
2019-05-26T04:20:49.307Z,7.18
2019-05-26T04:21:49.366Z,7.19
2019-05-26T04:22:49.349Z,7.18
2019-05-26T04:23:49.309Z,7.19
2019-05-26T04:24:49.309Z,7.19
2019-05-26T04:25:49.383Z,7.23
2019-05-26T04:26:49.295Z,7.30
2019-05-26T04:27:49.390Z,7.35
2019-05-26T04:28:49.388Z,7.41
2019-05-26T04:29:49.328Z,7.45
2019-05-26T04:30:49.391Z,7.52
2019-05-26T04:31:49.316Z,7.55
2019-05-26T04:32:49.394Z,7.59
2019-05-26T04:33:49.363Z,7.60
2019-05-26T04:34:49.329Z,7.65
2019-05-26T04:35:49.321Z,7.68
2019-05-26T04:36:49.411Z,7.71
2019-05-26T04:37:49.425Z,7.72
2019-05-26T04:38:49.342Z,7.74
2019-05-26T04:39:49.425Z,7.76
2019-05-26T04:40:49.349Z,7.78
2019-05-26T04:41:49.342Z,7.79
2019-05-26T04:42:49.394Z,7.81
2019-05-26T04:43:49.428Z,7.83
2019-05-26T04:44:49.416Z,7.87
2019-05-26T04:45:49.411Z,7.90
2019-05-26T04:46:49.339Z,7.92
2019-05-26T04:47:49.286Z,7.93
2019-05-26T04:48:49.373Z,7.99
2019-05-26T04:49:49.351Z,8.02
2019-05-26T04:50:49.321Z,8.05
2019-05-26T04:51:49.372Z,8.08
2019-05-26T04:53:05.605Z,8.11
2019-05-26T04:53:49.314Z,8.13
2019-05-26T04:54:49.317Z,8.17
2019-05-26T04:55:49.412Z,8.19
2019-05-26T04:56:49.411Z,8.24
2019-05-26T04:57:49.339Z,8.27
2019-05-26T04:58:49.408Z,8.30
2019-05-26T04:59:49.450Z,8.35
2019-05-26T05:00:49.348Z,8.42
2019-05-26T05:01:49.432Z,8.43
2019-05-26T05:02:49.337Z,8.46
2019-05-26T05:03:49.417Z,8.50
2019-05-26T05:04:49.339Z,8.56
2019-05-26T05:05:49.349Z,8.60
2019-05-26T05:06:49.416Z,8.62
2019-05-26T05:07:49.334Z,8.69
2019-05-26T05:08:49.418Z,8.72
2019-05-26T05:09:49.422Z,8.78
2019-05-26T05:10:49.368Z,8.82
2019-05-26T05:11:49.635Z,8.87
2019-05-26T05:12:49.347Z,8.93
2019-05-26T05:13:49.354Z,8.96
2019-05-26T05:14:49.422Z,9.01
2019-05-26T05:15:49.421Z,9.07
2019-05-26T05:16:49.432Z,9.12
2019-05-26T05:17:49.439Z,9.18
2019-05-26T05:18:49.448Z,9.18
2019-05-26T05:19:49.435Z,9.25
2019-05-26T05:20:49.437Z,9.30
2019-05-26T05:21:49.378Z,9.36
2019-05-26T05:22:49.439Z,9.42
2019-05-26T05:23:49.453Z,9.43
2019-05-26T05:24:49.374Z,9.43
2019-05-26T05:25:49.443Z,9.43
2019-05-26T05:26:49.446Z,9.44
2019-05-26T05:27:49.441Z,9.44
2019-05-26T05:28:49.408Z,9.47
2019-05-26T05:29:49.380Z,9.49
2019-05-26T05:30:49.445Z,9.53
2019-05-26T05:31:49.557Z,9.54
2019-05-26T05:32:49.446Z,9.57
2019-05-26T05:33:49.377Z,9.54
2019-05-26T05:34:49.483Z,9.57
2019-05-26T05:35:49.372Z,9.57
2019-05-26T05:36:49.460Z,9.61
2019-05-26T05:37:49.381Z,9.60
2019-05-26T05:38:49.385Z,9.65
2019-05-26T05:39:49.386Z,9.71
2019-05-26T05:40:59.038Z,9.71
2019-05-26T05:41:49.459Z,9.73
2019-05-26T05:42:49.391Z,9.79
2019-05-26T05:43:49.390Z,9.83
2019-05-26T05:44:49.399Z,9.87
2019-05-26T05:45:49.455Z,9.94
2019-05-26T05:46:49.387Z,10.04
2019-05-26T05:47:49.460Z,10.13
2019-05-26T05:48:49.388Z,10.20
2019-05-26T05:49:49.386Z,10.25
2019-05-26T05:50:49.392Z,10.36
2019-05-26T05:51:49.469Z,10.46
2019-05-26T05:52:49.462Z,10.52
2019-05-26T05:53:49.464Z,10.65
2019-05-26T05:54:49.467Z,10.77
2019-05-26T05:55:49.465Z,10.79
2019-05-26T05:56:49.467Z,10.87
2019-05-26T05:57:49.404Z,11.00
2019-05-26T05:58:49.405Z,11.07
2019-05-26T05:59:49.474Z,11.06
2019-05-26T06:00:49.401Z,11.11
2019-05-26T06:01:49.476Z,11.21
2019-05-26T06:02:49.483Z,11.32
2019-05-26T06:03:49.476Z,11.33
2019-05-26T06:04:49.523Z,11.33
2019-05-26T06:05:49.481Z,11.39
2019-05-26T06:06:49.473Z,11.33
2019-05-26T06:07:49.484Z,11.32
2019-05-26T06:08:49.427Z,11.46
2019-05-26T06:09:49.480Z,11.54
2019-05-26T06:10:49.406Z,11.50
2019-05-26T06:11:53.266Z,11.53
2019-05-26T06:12:49.477Z,11.60
2019-05-26T06:13:49.360Z,11.67
2019-05-26T06:14:49.442Z,11.79
2019-05-26T06:15:49.418Z,11.98
2019-05-26T06:16:49.480Z,12.09
2019-05-26T06:17:49.606Z,12.16
2019-05-26T06:18:49.486Z,12.22
2019-05-26T06:19:49.482Z,12.31
2019-05-26T06:20:49.494Z,12.44
2019-05-26T06:21:49.434Z,12.50
2019-05-26T06:22:49.374Z,12.64
2019-05-26T06:23:49.441Z,12.77
2019-05-26T06:24:49.417Z,12.84
2019-05-26T06:25:49.497Z,12.94
2019-05-26T06:26:49.421Z,13.06
2019-05-26T06:27:49.426Z,13.17
2019-05-26T06:28:52.323Z,13.31
2019-05-26T06:29:58.526Z,13.34
2019-05-26T06:30:49.484Z,13.36
2019-05-26T06:31:49.732Z,13.24
2019-05-26T06:32:49.474Z,13.16
2019-05-26T06:33:49.415Z,13.07
2019-05-26T06:34:49.406Z,13.05
2019-05-26T06:35:49.481Z,13.17
2019-05-26T06:36:49.485Z,13.23
2019-05-26T06:37:49.496Z,13.28
2019-05-26T06:38:49.505Z,13.35
2019-05-26T06:39:49.440Z,13.51
2019-05-26T06:40:49.392Z,13.61
2019-05-26T06:41:49.440Z,13.64
2019-05-26T06:42:49.503Z,13.76
2019-05-26T06:43:49.507Z,13.91
2019-05-26T06:44:53.635Z,14.07
2019-05-26T06:45:49.430Z,14.17
2019-05-26T06:46:49.515Z,14.15
2019-05-26T06:47:49.510Z,14.25
2019-05-26T06:48:49.431Z,14.29
2019-05-26T06:49:49.503Z,14.33
2019-05-26T06:50:49.437Z,14.46
2019-05-26T06:51:49.440Z,14.61
2019-05-26T06:52:49.509Z,14.75
2019-05-26T06:53:49.505Z,14.95
2019-05-26T06:54:49.506Z,15.18
2019-05-26T06:55:49.515Z,15.36
2019-05-26T06:56:49.450Z,15.54
2019-05-26T06:57:49.443Z,15.70
2019-05-26T06:58:49.404Z,15.77
2019-05-26T06:59:49.459Z,15.77
2019-05-26T07:00:49.464Z,15.86
2019-05-26T07:01:49.491Z,15.90
2019-05-26T07:02:49.391Z,15.84
2019-05-26T07:03:49.465Z,15.87
2019-05-26T07:04:49.503Z,16.00
2019-05-26T07:05:49.432Z,16.10
2019-05-26T07:06:49.395Z,16.28
2019-05-26T07:07:49.504Z,16.46
2019-05-26T07:08:49.508Z,16.65
2019-05-26T07:09:49.447Z,16.77
2019-05-26T07:10:49.423Z,16.81
2019-05-26T07:11:57.313Z,16.90
2019-05-26T07:12:49.435Z,16.90
2019-05-26T07:13:49.508Z,16.88
2019-05-26T07:14:49.512Z,17.02
2019-05-26T07:15:49.513Z,17.08
2019-05-26T07:16:49.438Z,17.24
2019-05-26T07:17:49.448Z,17.22
2019-05-26T07:18:49.399Z,17.24
2019-05-26T07:19:49.518Z,17.28
2019-05-26T07:20:49.521Z,17.31
2019-05-26T07:21:49.449Z,17.43
2019-05-26T07:22:49.555Z,17.50
2019-05-26T07:23:49.415Z,17.40
2019-05-26T07:24:49.454Z,17.37
2019-05-26T07:25:49.430Z,17.46
2019-05-26T07:26:49.524Z,17.57
2019-05-26T07:27:49.475Z,17.49
2019-05-26T07:28:49.446Z,17.40
2019-05-26T07:29:49.494Z,17.39
2019-05-26T07:30:49.487Z,17.50
2019-05-26T07:31:49.535Z,17.61
2019-05-26T07:32:49.516Z,17.71
2019-05-26T07:33:49.490Z,17.91
2019-05-26T07:34:49.551Z,18.02
2019-05-26T07:35:50.001Z,18.12
2019-05-26T07:36:49.456Z,18.20
2019-05-26T07:37:49.461Z,18.36
2019-05-26T07:38:49.531Z,18.57
2019-05-26T07:39:49.530Z,18.72
2019-05-26T07:40:49.456Z,18.92
2019-05-26T07:42:08.269Z,19.10
2019-05-26T07:42:49.470Z,19.25
2019-05-26T07:43:49.542Z,19.27
2019-05-26T07:44:49.486Z,19.44
2019-05-26T07:45:49.460Z,19.55
2019-05-26T07:46:49.463Z,19.66
2019-05-26T07:47:49.491Z,19.65
2019-05-26T07:48:49.546Z,19.51
2019-05-26T07:49:49.601Z,19.62
2019-05-26T07:50:49.481Z,19.81
2019-05-26T07:51:49.552Z,19.83
2019-05-26T07:52:49.438Z,20.02
2019-05-26T07:53:49.495Z,20.13
2019-05-26T07:54:49.478Z,20.25
2019-05-26T07:55:49.562Z,20.39
2019-05-26T07:56:49.555Z,20.34
2019-05-26T07:57:49.509Z,20.20
2019-05-26T07:58:49.428Z,20.10
2019-05-26T07:59:49.456Z,20.34
2019-05-26T08:00:49.434Z,20.47
2019-05-26T08:01:49.545Z,20.73
2019-05-26T08:02:49.497Z,20.76
2019-05-26T08:03:49.548Z,20.64
2019-05-26T08:04:49.551Z,20.35
2019-05-26T08:05:49.537Z,20.31
2019-05-26T08:06:49.426Z,20.16
2019-05-26T08:07:49.495Z,19.91
2019-05-26T08:08:49.498Z,19.74
2019-05-26T08:09:49.562Z,19.61
2019-05-26T08:10:49.569Z,19.55
2019-05-26T08:11:49.503Z,19.54
2019-05-26T08:12:49.565Z,19.58
2019-05-26T08:13:49.496Z,19.42
2019-05-26T08:14:49.586Z,19.27
2019-05-26T08:15:49.497Z,19.13
2019-05-26T08:16:49.569Z,18.98
2019-05-26T08:17:49.568Z,18.98
2019-05-26T08:18:49.514Z,19.03
2019-05-26T08:19:49.509Z,19.08
2019-05-26T08:20:49.574Z,19.10
2019-05-26T08:21:49.572Z,19.16
2019-05-26T08:22:49.572Z,19.39
2019-05-26T08:23:49.507Z,19.40
2019-05-26T08:24:49.572Z,19.46
2019-05-26T08:25:49.544Z,19.51
2019-05-26T08:26:49.518Z,19.53
2019-05-26T08:27:49.562Z,19.53
2019-05-26T08:28:49.570Z,19.58
2019-05-26T08:29:49.579Z,19.60
2019-05-26T08:30:49.498Z,19.61
2019-05-26T08:31:49.567Z,19.62
2019-05-26T08:32:49.509Z,19.64
2019-05-26T08:33:49.574Z,19.54
2019-05-26T08:34:49.577Z,19.44
2019-05-26T08:35:49.571Z,19.51
2019-05-26T08:36:49.545Z,19.43
2019-05-26T08:37:49.585Z,19.35
2019-05-26T08:38:49.584Z,19.38
2019-05-26T08:39:49.518Z,19.54
2019-05-26T08:40:49.534Z,19.64
2019-05-26T08:41:49.591Z,19.66
2019-05-26T08:42:49.583Z,19.65
2019-05-26T08:43:49.589Z,19.58
2019-05-26T08:44:49.593Z,19.55
2019-05-26T08:45:49.521Z,19.43
2019-05-26T08:46:49.518Z,19.43
2019-05-26T08:47:49.583Z,19.54
2019-05-26T08:48:49.576Z,19.73
2019-05-26T08:49:49.515Z,19.70
2019-05-26T08:50:49.470Z,19.60
2019-05-26T08:51:49.583Z,19.35
2019-05-26T08:52:49.578Z,19.40
2019-05-26T08:53:49.481Z,19.39
2019-05-26T08:54:49.519Z,19.43
2019-05-26T08:55:49.580Z,19.47
2019-05-26T08:56:49.515Z,19.51
2019-05-26T08:57:49.592Z,19.51
2019-05-26T08:58:49.594Z,19.51
2019-05-26T08:59:49.596Z,19.51
2019-05-26T09:00:49.504Z,19.51
2019-05-26T09:01:49.567Z,19.60
2019-05-26T09:02:49.535Z,19.61
2019-05-26T09:03:49.593Z,19.62
2019-05-26T09:04:49.506Z,19.65
2019-05-26T09:05:49.520Z,19.61
2019-05-26T09:06:49.503Z,19.43
2019-05-26T09:07:49.615Z,19.40
2019-05-26T09:08:49.504Z,19.40
2019-05-26T09:09:49.615Z,19.40
2019-05-26T09:10:49.614Z,19.38
2019-05-26T09:11:49.542Z,19.49
2019-05-26T09:13:00.186Z,19.61
2019-05-26T09:13:49.549Z,19.76
2019-05-26T09:14:49.614Z,19.58
2019-05-26T09:15:49.619Z,19.50
2019-05-26T09:16:49.639Z,19.47
2019-05-26T09:17:49.559Z,19.38
2019-05-26T09:18:49.614Z,19.49
2019-05-26T09:19:49.612Z,19.61
2019-05-26T09:20:49.624Z,19.80
2019-05-26T09:21:49.615Z,19.84
2019-05-26T09:22:49.548Z,19.79
2019-05-26T09:23:49.559Z,19.81
2019-05-26T09:24:49.616Z,20.03
2019-05-26T09:25:49.627Z,20.31
2019-05-26T09:26:49.552Z,20.41
2019-05-26T09:27:49.619Z,20.54
2019-05-26T09:28:49.562Z,20.72
2019-05-26T09:29:49.551Z,20.70
2019-05-26T09:30:49.575Z,20.70
2019-05-26T09:31:49.563Z,20.76
2019-05-26T09:32:49.560Z,20.76
2019-05-26T09:33:49.557Z,20.58
2019-05-26T09:34:49.572Z,20.70
2019-05-26T09:35:49.628Z,21.04
2019-05-26T09:36:49.629Z,21.08
2019-05-26T09:37:49.628Z,21.24
2019-05-26T09:38:49.688Z,21.29
2019-05-26T09:39:49.650Z,21.29
2019-05-26T09:40:49.629Z,21.09
2019-05-26T09:41:49.633Z,21.06
2019-05-26T09:42:49.631Z,20.95
2019-05-26T09:43:49.634Z,21.09
2019-05-26T09:44:49.544Z,21.14
2019-05-26T09:45:49.637Z,20.91
2019-05-26T09:46:49.737Z,20.86
2019-05-26T09:47:49.621Z,20.97
2019-05-26T09:48:49.553Z,20.97
2019-05-26T09:49:49.553Z,20.98
2019-05-26T09:50:49.623Z,21.14
2019-05-26T09:51:49.601Z,21.14
2019-05-26T09:52:49.631Z,20.94
2019-05-26T09:54:01.264Z,20.97
2019-05-26T09:54:49.565Z,20.95
2019-05-26T09:55:49.627Z,20.87
2019-05-26T09:56:49.580Z,20.97
2019-05-26T09:57:49.643Z,21.08
2019-05-26T09:58:49.573Z,21.16
2019-05-26T09:59:49.583Z,20.99
2019-05-26T10:00:49.644Z,20.82
2019-05-26T10:01:49.706Z,20.60
2019-05-26T10:02:49.579Z,20.58
2019-05-26T10:03:49.575Z,20.61
2019-05-26T10:04:49.590Z,20.72
2019-05-26T10:05:49.652Z,20.88
2019-05-26T10:06:49.583Z,21.09
2019-05-26T10:07:49.579Z,20.99
2019-05-26T10:08:49.529Z,20.98
2019-05-26T10:09:49.573Z,21.04
2019-05-26T10:10:49.637Z,21.06
2019-05-26T10:11:49.652Z,21.18
2019-05-26T10:12:49.568Z,21.35
2019-05-26T10:13:49.555Z,21.38
2019-05-26T10:14:49.645Z,21.54
2019-05-26T10:15:49.646Z,21.47
2019-05-26T10:16:49.573Z,21.50
2019-05-26T10:17:49.664Z,21.62
2019-05-26T10:18:49.596Z,21.75
2019-05-26T10:19:49.587Z,21.69
2019-05-26T10:20:49.667Z,21.83
2019-05-26T10:21:49.667Z,21.94
2019-05-26T10:22:49.592Z,21.87
2019-05-26T10:23:52.890Z,21.90
2019-05-26T10:24:49.882Z,21.79
2019-05-26T10:25:49.602Z,21.54
2019-05-26T10:26:49.661Z,21.29
2019-05-26T10:27:49.667Z,21.32
2019-05-26T10:28:49.666Z,21.18
2019-05-26T10:29:49.602Z,21.27
2019-05-26T10:30:49.744Z,21.31
2019-05-26T10:31:49.668Z,21.47
2019-05-26T10:32:49.613Z,21.80
2019-05-26T10:33:49.670Z,21.82
2019-05-26T10:34:49.602Z,21.75
2019-05-26T10:35:49.686Z,21.76
2019-05-26T10:36:49.607Z,21.73
2019-05-26T10:37:49.601Z,21.67
2019-05-26T10:38:49.625Z,21.76
2019-05-26T10:39:49.621Z,21.98
2019-05-26T10:40:49.594Z,22.06
2019-05-26T10:41:49.535Z,22.21
2019-05-26T10:42:49.501Z,22.35
2019-05-26T10:43:49.675Z,22.30
2019-05-26T10:44:49.532Z,22.34
2019-05-26T10:45:49.649Z,22.34
2019-05-26T10:46:49.628Z,22.43
2019-05-26T10:47:49.618Z,22.52
2019-05-26T10:48:49.687Z,22.48
2019-05-26T10:49:49.685Z,22.49
2019-05-26T10:50:49.710Z,22.46
2019-05-26T10:51:49.679Z,22.36
2019-05-26T10:52:49.685Z,22.24
2019-05-26T10:53:49.687Z,22.14
2019-05-26T10:54:49.644Z,22.13
2019-05-26T10:55:49.687Z,22.16
2019-05-26T10:56:49.685Z,22.00
2019-05-26T10:57:49.683Z,21.96
2019-05-26T10:58:49.687Z,21.87
2019-05-26T10:59:49.625Z,21.91
2019-05-26T11:00:49.618Z,21.78
2019-05-26T11:01:49.664Z,21.68
2019-05-26T11:02:49.691Z,21.53
2019-05-26T11:03:49.683Z,21.58
2019-05-26T11:04:49.621Z,21.69
2019-05-26T11:05:49.623Z,21.73
2019-05-26T11:06:49.700Z,21.90
2019-05-26T11:07:49.574Z,21.87
2019-05-26T11:08:49.720Z,21.67
2019-05-26T11:09:49.608Z,21.56
2019-05-26T11:10:49.576Z,21.42
2019-05-26T11:11:49.613Z,21.36
2019-05-26T11:12:49.626Z,21.18
2019-05-26T11:14:01.917Z,21.08
2019-05-26T11:14:49.615Z,20.94
2019-05-26T11:15:49.655Z,20.83
2019-05-26T11:16:49.627Z,20.76
2019-05-26T11:17:49.627Z,20.72
2019-05-26T11:18:49.633Z,20.73
2019-05-26T11:19:49.645Z,20.70
2019-05-26T11:20:49.681Z,20.58
2019-05-26T11:21:49.636Z,20.70
2019-05-26T11:22:49.639Z,20.83
2019-05-26T11:23:49.635Z,20.87
2019-05-26T11:24:49.631Z,20.93
2019-05-26T11:25:49.638Z,21.08
2019-05-26T11:26:49.604Z,21.05
2019-05-26T11:27:49.654Z,20.87
2019-05-26T11:28:49.656Z,20.84
2019-05-26T11:29:49.686Z,20.77
2019-05-26T11:30:49.659Z,20.77
2019-05-26T11:31:49.543Z,20.83
2019-05-26T11:32:49.581Z,20.86
2019-05-26T11:33:49.565Z,20.84
2019-05-26T11:35:01.080Z,20.86
2019-05-26T11:35:49.664Z,20.87
2019-05-26T11:36:49.630Z,20.82
2019-05-26T11:37:49.717Z,20.88
2019-05-26T11:38:49.718Z,20.91
2019-05-26T11:39:49.713Z,20.82
2019-05-26T11:40:49.733Z,20.69
2019-05-26T11:41:54.951Z,20.61
2019-05-26T11:42:49.653Z,20.66
2019-05-26T11:43:49.787Z,20.70
2019-05-26T11:44:49.652Z,20.68
2019-05-26T11:45:49.670Z,20.65
2019-05-26T11:46:49.755Z,20.65
2019-05-26T11:47:49.721Z,20.72
2019-05-26T11:48:49.731Z,20.75
2019-05-26T11:49:49.657Z,20.76
2019-05-26T11:50:49.733Z,20.80
2019-05-26T11:51:49.737Z,20.84
2019-05-26T11:52:49.728Z,20.79
2019-05-26T11:53:49.664Z,20.75
2019-05-26T11:54:49.663Z,20.72
2019-05-26T11:55:49.725Z,20.65
2019-05-26T11:56:49.731Z,20.61
2019-05-26T11:57:49.737Z,20.58
2019-05-26T11:58:49.797Z,20.52
2019-05-26T11:59:49.738Z,20.50
2019-05-26T12:00:49.798Z,20.47
2019-05-26T12:01:49.729Z,20.52
2019-05-26T12:02:49.665Z,20.46
2019-05-26T12:03:49.733Z,20.46
2019-05-26T12:04:49.667Z,20.47
2019-05-26T12:05:49.724Z,20.43
2019-05-26T12:06:49.673Z,20.43
2019-05-26T12:07:49.740Z,20.42
2019-05-26T12:08:49.640Z,20.36
2019-05-26T12:09:49.731Z,20.28
2019-05-26T12:10:49.732Z,20.30
2019-05-26T12:11:49.734Z,20.28
2019-05-26T12:12:49.737Z,20.32
2019-05-26T12:13:49.628Z,20.28
2019-05-26T12:14:49.649Z,20.27
2019-05-26T12:15:49.739Z,20.25
2019-05-26T12:16:49.648Z,20.30
2019-05-26T12:17:49.667Z,20.31
2019-05-26T12:18:49.620Z,20.30
2019-05-26T12:19:49.721Z,20.24
2019-05-26T12:20:49.724Z,20.28
2019-05-26T12:21:49.682Z,20.30
2019-05-26T12:22:49.651Z,20.28
2019-05-26T12:23:49.727Z,20.28
2019-05-26T12:24:49.737Z,20.30
2019-05-26T12:25:49.625Z,20.32
2019-05-26T12:26:49.741Z,20.36
2019-05-26T12:27:49.655Z,20.42
2019-05-26T12:28:49.660Z,20.42
2019-05-26T12:29:49.637Z,20.45
2019-05-26T12:30:49.748Z,20.45
2019-05-26T12:31:49.742Z,20.49
2019-05-26T12:32:49.745Z,20.45
2019-05-26T12:33:49.673Z,20.42
2019-05-26T12:34:49.647Z,20.39
2019-05-26T12:35:49.747Z,20.42
2019-05-26T12:36:49.717Z,20.39
2019-05-26T12:37:49.666Z,20.36
2019-05-26T12:38:49.753Z,20.39
2019-05-26T12:39:49.672Z,20.39
2019-05-26T12:40:49.684Z,20.43
2019-05-26T12:41:49.686Z,20.52
2019-05-26T12:42:49.653Z,20.56
2019-05-26T12:43:49.685Z,20.61
2019-05-26T12:44:50.252Z,20.66
2019-05-26T12:45:49.685Z,20.75
2019-05-26T12:46:49.762Z,20.75
2019-05-26T12:47:49.758Z,20.79
2019-05-26T12:48:49.789Z,20.83
2019-05-26T12:49:49.781Z,20.77
2019-05-26T12:50:49.701Z,20.73
2019-05-26T12:51:49.775Z,20.68
2019-05-26T12:52:49.773Z,20.69
2019-05-26T12:53:49.790Z,20.68
2019-05-26T12:54:49.711Z,20.66
2019-05-26T12:55:49.776Z,20.69
2019-05-26T12:56:49.710Z,20.75
2019-05-26T12:57:49.771Z,20.80
2019-05-26T12:58:49.789Z,20.79
2019-05-26T12:59:49.776Z,20.82
2019-05-26T13:00:54.664Z,20.72
2019-05-26T13:01:49.786Z,20.60
2019-05-26T13:02:49.782Z,20.53
2019-05-26T13:03:49.714Z,20.54